createdAt,value
2018-09-12T00:02:07.256Z,3.53
2018-09-12T00:04:35.005Z,3.72
2018-09-12T00:07:03.319Z,3.20
2018-09-12T00:09:32.218Z,3.40
2018-09-12T00:12:00.538Z,4.28
2018-09-12T00:14:28.859Z,4.25
2018-09-12T00:16:56.606Z,3.08
2018-09-12T00:19:25.528Z,2.92
2018-09-12T00:21:53.254Z,3.30
2018-09-12T00:24:22.153Z,3.45
2018-09-12T00:26:49.897Z,3.00
2018-09-12T00:29:18.795Z,3.00
2018-09-12T00:31:46.534Z,4.18
2018-09-12T00:34:14.950Z,3.60
2018-09-12T00:36:43.757Z,3.20
2018-09-12T00:39:12.082Z,3.03
2018-09-12T00:41:39.824Z,2.87
2018-09-12T00:44:08.730Z,2.92
2018-09-12T00:46:37.044Z,3.08
2018-09-12T00:49:05.366Z,3.30
2018-09-12T00:51:34.200Z,3.90
2018-09-12T00:54:02.516Z,2.78
2018-09-12T00:56:30.834Z,3.20
2018-09-12T00:58:58.577Z,3.03
2018-09-12T01:01:27.474Z,3.62
2018-09-12T01:03:55.805Z,3.40
2018-09-12T01:06:24.127Z,4.35
2018-09-12T01:08:52.446Z,3.15
2018-09-12T01:11:20.772Z,2.75
2018-09-12T01:13:48.529Z,3.08
2018-09-12T01:16:18.755Z,2.80
2018-09-12T01:18:47.654Z,2.92
2018-09-12T01:21:17.941Z,2.92
2018-09-12T01:23:46.261Z,4.05
2018-09-12T01:26:14.581Z,3.10
2018-09-12T01:28:42.529Z,2.75
2018-09-12T01:31:11.227Z,2.95
2018-09-12T01:33:39.554Z,2.80
2018-09-12T01:36:07.288Z,2.97
2018-09-12T01:38:36.186Z,2.83
2018-09-12T01:41:04.505Z,2.70
2018-09-12T01:43:32.837Z,3.10
2018-09-12T01:46:01.231Z,3.50
2018-09-12T01:48:29.552Z,3.10
2018-09-12T01:50:57.874Z,2.92
2018-09-12T01:53:25.768Z,3.22
2018-09-12T01:55:54.753Z,2.97
2018-09-12T01:58:23.076Z,2.92
2018-09-12T02:00:51.398Z,2.90
2018-09-12T02:03:20.221Z,4.53
2018-09-12T02:05:47.965Z,2.72
2018-09-12T02:08:16.867Z,4.22
2018-09-12T02:10:45.181Z,2.92
2018-09-12T02:13:13.508Z,3.10
2018-09-12T02:15:41.244Z,3.30
2018-09-12T02:18:10.141Z,3.45
2018-09-12T02:20:38.472Z,2.97
2018-09-12T02:23:06.376Z,2.80
2018-09-12T02:25:35.110Z,4.12
2018-09-12T02:28:03.429Z,3.05
2018-09-12T02:30:31.750Z,3.30
2018-09-12T02:32:59.488Z,3.08
2018-09-12T02:35:28.386Z,2.62
2018-09-12T02:37:56.132Z,3.10
2018-09-12T02:40:25.029Z,2.78
2018-09-12T02:42:53.354Z,3.80
2018-09-12T02:45:21.688Z,3.17
2018-09-12T02:47:49.425Z,3.65
2018-09-12T02:50:17.835Z,2.95
2018-09-12T02:52:46.733Z,2.75
2018-09-12T02:55:15.057Z,3.62
2018-09-12T02:57:43.383Z,2.95
2018-09-12T03:00:11.122Z,2.83
2018-09-12T03:02:39.445Z,3.17
2018-09-12T03:05:08.343Z,3.55
2018-09-12T03:07:36.664Z,3.28
2018-09-12T03:10:04.988Z,3.17
2018-09-12T03:12:33.310Z,3.05
2018-09-12T03:15:01.632Z,3.25
2018-09-12T03:17:29.377Z,3.30
2018-09-12T03:19:58.273Z,2.70
2018-09-12T03:22:26.590Z,3.22
2018-09-12T03:24:54.909Z,3.05
2018-09-12T03:27:22.650Z,2.90
2018-09-12T03:29:51.553Z,3.05
2018-09-12T03:32:19.874Z,3.67
2018-09-12T03:34:48.189Z,3.28
2018-09-12T03:37:16.506Z,3.30
2018-09-12T03:39:44.251Z,3.00
2018-09-12T03:42:13.157Z,3.95
2018-09-12T03:44:41.513Z,2.90
2018-09-12T03:47:10.415Z,3.03
2018-09-12T03:49:38.738Z,3.33
2018-09-12T03:52:07.065Z,2.78
2018-09-12T03:54:34.858Z,2.97
2018-09-12T03:57:03.705Z,3.05
2018-09-12T03:59:31.456Z,3.00
2018-09-12T04:02:00.359Z,2.75
2018-09-12T04:04:28.681Z,2.95
2018-09-12T04:06:57.006Z,2.92
2018-09-12T04:09:25.325Z,5.70
2018-09-12T04:11:53.642Z,5.57
2018-09-12T04:14:21.966Z,5.82
2018-09-12T04:16:53.777Z,6.80
2018-09-12T04:19:22.034Z,8.25
2018-09-12T04:21:50.358Z,10.60
2018-09-12T04:24:18.755Z,10.70
2018-09-12T04:26:46.423Z,10.32
2018-09-12T04:29:15.328Z,8.18
2018-09-12T04:31:43.069Z,12.18
2018-09-12T04:34:11.392Z,7.85
2018-09-12T04:36:40.289Z,8.40
2018-09-12T04:39:08.612Z,8.18
2018-09-12T04:41:36.933Z,7.22
2018-09-12T04:44:05.262Z,83.35
2018-09-12T04:46:33.015Z,53.63
2018-09-12T04:49:01.929Z,50.70
2018-09-12T04:51:29.688Z,48.60
2018-09-12T04:53:58.022Z,43.53
2018-09-12T04:56:26.359Z,38.05
2018-09-12T04:58:55.186Z,41.15
2018-09-12T05:01:23.602Z,32.03
2018-09-12T05:03:52.000Z,31.75
2018-09-12T05:06:20.332Z,30.10
2018-09-12T05:08:48.668Z,27.50
2018-09-12T05:11:16.996Z,26.33
2018-09-12T05:13:44.744Z,21.73
2018-09-12T05:16:13.074Z,26.30
2018-09-12T05:18:41.406Z,24.80
2018-09-12T05:21:09.737Z,25.08
2018-09-12T05:23:38.069Z,24.15
2018-09-12T05:26:06.403Z,22.02
2018-09-12T05:28:35.378Z,20.35
2018-09-12T05:31:03.654Z,22.15
2018-09-12T05:33:31.411Z,23.25
2018-09-12T05:36:00.033Z,21.62
2018-09-12T05:38:38.649Z,21.02
2018-09-12T05:41:08.572Z,19.55
2018-09-12T05:43:36.324Z,19.35
2018-09-12T05:46:05.256Z,19.52
2018-09-12T05:48:33.583Z,16.83
2018-09-12T05:51:01.339Z,17.87
2018-09-12T05:53:29.666Z,17.55
2018-09-12T05:55:58.579Z,16.15
2018-09-12T05:58:26.325Z,15.40
2018-09-12T06:00:54.668Z,15.27
2018-09-12T06:03:23.587Z,28.45
2018-09-12T06:05:51.927Z,22.05
2018-09-12T06:08:20.261Z,21.90
2018-09-12T06:10:48.641Z,27.95
2018-09-12T06:13:17.304Z,28.75
2018-09-12T06:15:45.052Z,32.20
2018-09-12T06:18:13.385Z,29.95
2018-09-12T06:20:42.296Z,35.40
2018-09-12T06:23:10.632Z,37.10
2018-09-12T06:25:38.383Z,42.65
2018-09-12T06:28:07.300Z,58.03
2018-09-12T06:30:35.638Z,61.47
2018-09-12T06:33:04.454Z,57.53
2018-09-12T06:35:32.205Z,52.67
2018-09-12T06:38:00.545Z,56.13
2018-09-12T06:40:28.880Z,55.22
2018-09-12T06:42:57.212Z,57.25
2018-09-12T06:45:25.550Z,54.95
2018-09-12T06:47:54.462Z,48.03
2018-09-12T06:50:22.214Z,48.40
2018-09-12T06:52:51.129Z,47.35
2018-09-12T06:55:19.464Z,53.38
2018-09-12T06:57:47.796Z,44.60
2018-09-12T07:00:15.550Z,46.17
2018-09-12T07:02:59.459Z,42.38
2018-09-12T07:05:27.210Z,43.03
2018-09-12T07:08:01.449Z,38.35
2018-09-12T07:10:29.191Z,41.65
2018-09-12T07:12:58.111Z,38.15
2018-09-12T07:15:26.447Z,38.03
2018-09-12T07:17:54.693Z,41.00
2018-09-12T07:20:22.529Z,34.65
2018-09-12T07:22:50.861Z,41.25
2018-09-12T07:25:19.196Z,53.70
2018-09-12T07:27:48.120Z,67.07
2018-09-12T07:30:17.061Z,63.38
2018-09-12T07:32:44.820Z,73.65
2018-09-12T07:35:13.734Z,68.72
2018-09-12T07:37:41.484Z,63.13
2018-09-12T07:40:09.818Z,51.63
2018-09-12T07:42:38.768Z,52.40
2018-09-12T07:45:07.112Z,49.45
2018-09-12T07:47:35.464Z,39.72
2018-09-12T07:50:03.789Z,46.70
2018-09-12T07:52:32.120Z,46.85
2018-09-12T07:54:59.873Z,41.35
2018-09-12T07:57:28.788Z,38.38
2018-09-12T07:59:57.174Z,39.80
2018-09-12T08:02:25.460Z,39.10
2018-09-12T08:04:53.279Z,37.53
2018-09-12T08:07:21.694Z,30.55
2018-09-12T08:09:50.474Z,27.67
2018-09-12T08:12:18.948Z,28.23
2018-09-12T08:14:46.558Z,26.98
2018-09-12T08:17:15.517Z,30.62
2018-09-12T08:19:43.245Z,23.48
2018-09-12T08:22:12.173Z,23.20
2018-09-12T08:24:40.442Z,27.08
2018-09-12T08:27:08.828Z,25.35
2018-09-12T08:29:36.586Z,25.12
2018-09-12T08:32:05.564Z,24.27
2018-09-12T08:34:33.903Z,22.02
2018-09-12T08:37:01.656Z,22.42
2018-09-12T08:39:30.576Z,22.37
2018-09-12T08:41:58.387Z,23.00
2018-09-12T08:44:27.236Z,22.90
2018-09-12T08:46:55.649Z,22.73
2018-09-12T08:49:23.325Z,22.65
2018-09-12T08:51:52.235Z,21.95
2018-09-12T08:54:20.569Z,21.77
2018-09-12T08:56:48.920Z,21.65
2018-09-12T08:59:17.240Z,20.08
2018-09-12T09:01:45.625Z,19.90
2018-09-12T09:04:26.288Z,18.62
2018-09-12T09:06:54.639Z,23.30
2018-09-12T09:09:23.050Z,21.50
2018-09-12T09:11:51.640Z,19.67
2018-09-12T09:14:20.557Z,18.23
2018-09-12T09:16:48.312Z,17.17
2018-09-12T09:19:17.221Z,17.30
2018-09-12T09:21:45.365Z,19.75
2018-09-12T09:24:13.890Z,17.40
2018-09-12T09:26:50.495Z,17.60
2018-09-12T09:29:18.245Z,15.85
2018-09-12T09:31:47.155Z,16.62
2018-09-12T09:34:14.906Z,18.37
2018-09-12T09:36:43.244Z,17.00
2018-09-12T09:39:12.164Z,18.55
2018-09-12T09:41:40.498Z,17.58
2018-09-12T09:44:08.318Z,16.75
2018-09-12T09:46:36.589Z,18.58
2018-09-12T09:49:05.060Z,17.85
2018-09-12T09:51:33.975Z,13.23
2018-09-12T09:54:01.739Z,37.15
2018-09-12T09:56:30.653Z,79.45
2018-09-12T09:58:58.989Z,81.70
2018-09-12T10:01:29.256Z,75.97
2018-09-12T10:03:57.591Z,63.08
2018-09-12T10:06:25.346Z,61.15
2018-09-12T10:08:54.257Z,60.12
2018-09-12T10:11:22.594Z,49.25
2018-09-12T10:13:50.927Z,46.72
2018-09-12T10:16:19.263Z,46.00
2018-09-12T10:18:47.603Z,41.63
2018-09-12T10:21:15.934Z,42.88
2018-09-12T10:23:43.694Z,42.58
2018-09-12T10:26:13.199Z,40.42
2018-09-12T10:28:40.992Z,35.97
2018-09-12T10:31:09.327Z,33.55
2018-09-12T10:33:38.232Z,31.55
2018-09-12T10:36:06.567Z,28.95
2018-09-12T10:38:34.417Z,28.05
2018-09-12T10:41:03.364Z,27.98
2018-09-12T10:43:31.081Z,26.73
2018-09-12T10:45:59.417Z,26.17
2018-09-12T10:48:27.755Z,25.23
2018-09-12T10:50:56.671Z,22.35
2018-09-12T10:53:24.994Z,21.80
2018-09-12T10:55:52.752Z,22.42
2018-09-12T10:58:21.674Z,22.05
2018-09-12T11:00:50.007Z,26.87
2018-09-12T11:03:17.765Z,22.75
2018-09-12T11:05:46.099Z,22.02
2018-09-12T11:08:14.432Z,19.23
2018-09-12T11:10:47.843Z,20.98
2018-09-12T11:13:16.180Z,18.90
2018-09-12T11:15:44.698Z,17.12
2018-09-12T11:18:13.491Z,16.17
2018-09-12T11:20:41.824Z,15.50
2018-09-12T11:23:09.574Z,14.48
2018-09-12T11:25:38.491Z,15.15
2018-09-12T11:28:06.828Z,13.60
2018-09-12T11:30:35.160Z,16.27
2018-09-12T11:33:03.490Z,14.77
2018-09-12T11:35:31.677Z,14.40
2018-09-12T11:38:00.710Z,13.82
2018-09-12T11:40:29.044Z,12.45
2018-09-12T11:42:57.379Z,17.65
2018-09-12T11:45:25.707Z,16.48
2018-09-12T11:47:53.462Z,15.40
2018-09-12T11:50:22.380Z,14.20
2018-09-12T11:52:50.718Z,14.40
2018-09-12T11:55:18.466Z,13.62
2018-09-12T11:57:46.815Z,13.35
2018-09-12T12:00:15.726Z,12.05
2018-09-12T12:02:44.058Z,12.60
2018-09-12T12:05:12.393Z,11.93
2018-09-12T12:07:40.144Z,11.93
2018-09-12T12:10:09.061Z,11.85
2018-09-12T12:12:36.812Z,10.35
2018-09-12T12:15:10.994Z,10.52
2018-09-12T12:17:39.870Z,11.70
2018-09-12T12:20:08.195Z,9.82
2018-09-12T12:22:35.942Z,9.90
2018-09-12T12:25:04.270Z,74.20
2018-09-12T12:27:33.267Z,78.85
2018-09-12T12:30:01.617Z,52.80
2018-09-12T12:32:29.369Z,45.15
2018-09-12T12:34:57.959Z,41.65
2018-09-12T12:37:26.629Z,40.67
2018-09-12T12:39:54.964Z,31.73
2018-09-12T12:42:22.722Z,29.40
2018-09-12T12:44:51.065Z,24.33
2018-09-12T12:47:20.352Z,23.33
2018-09-12T12:49:48.684Z,18.60
2018-09-12T12:52:17.910Z,20.95
2018-09-12T12:54:46.271Z,15.45
2018-09-12T12:57:14.608Z,13.27
2018-09-12T12:59:42.557Z,12.48
2018-09-12T13:02:11.472Z,11.15
2018-09-12T13:04:39.266Z,9.70
2018-09-12T13:07:07.701Z,11.40
2018-09-12T13:09:36.326Z,9.65
2018-09-12T13:12:04.929Z,10.20
2018-09-12T13:14:33.467Z,9.88
2018-09-12T13:17:01.741Z,9.88
2018-09-12T13:19:30.067Z,8.15
2018-09-12T13:21:58.394Z,7.50
2018-09-12T13:24:26.834Z,8.50
2018-09-12T13:26:54.581Z,7.75
2018-09-12T13:29:23.596Z,8.93
2018-09-12T13:31:51.340Z,7.32
2018-09-12T13:34:20.264Z,9.32
2018-09-12T13:36:48.583Z,8.32
2018-09-12T13:39:16.901Z,7.53
2018-09-12T13:41:45.225Z,7.45
2018-09-12T13:44:13.546Z,7.87
2018-09-12T13:46:41.399Z,9.45
2018-09-12T13:49:09.707Z,7.95
2018-09-12T13:51:38.608Z,7.60
2018-09-12T13:54:07.347Z,8.55
2018-09-12T13:56:35.617Z,20.08
2018-09-12T13:59:04.475Z,9.00
2018-09-12T14:01:32.481Z,8.25
2018-09-12T14:04:01.394Z,6.35
2018-09-12T14:06:29.724Z,8.48
2018-09-12T14:08:58.450Z,6.90
2018-09-12T14:11:26.106Z,10.13
2018-09-12T14:13:55.009Z,9.60
2018-09-12T14:16:23.326Z,8.15
2018-09-12T14:18:51.068Z,6.55
2018-09-12T14:21:19.972Z,8.95
2018-09-12T14:23:47.906Z,12.07
2018-09-12T14:26:16.816Z,9.68
2018-09-12T14:28:44.566Z,8.55
2018-09-12T14:31:13.468Z,7.10
2018-09-12T14:33:41.801Z,8.13
2018-09-12T14:36:10.286Z,7.90
2018-09-12T14:38:38.666Z,7.15
2018-09-12T14:41:06.583Z,6.90
2018-09-12T14:43:35.366Z,8.23
2018-09-12T14:46:03.691Z,7.10
2018-09-12T14:48:32.025Z,7.70
2018-09-12T14:51:00.345Z,8.32
2018-09-12T14:53:28.674Z,10.10
2018-09-12T14:55:57.019Z,7.72
2018-09-12T14:58:24.765Z,7.35
2018-09-12T15:00:53.368Z,6.62
2018-09-12T15:03:21.988Z,5.65
2018-09-12T15:05:49.732Z,7.55
2018-09-12T15:08:18.223Z,6.93
2018-09-12T15:10:46.953Z,9.85
2018-09-12T15:13:15.289Z,9.38
2018-09-12T15:15:43.604Z,9.65
2018-09-12T15:18:11.361Z,10.10
2018-09-12T15:20:40.275Z,8.52
2018-09-12T15:23:08.600Z,11.57
2018-09-12T15:25:36.932Z,8.73
2018-09-12T15:28:05.541Z,7.37
2018-09-12T15:30:33.864Z,7.57
2018-09-12T15:33:02.188Z,8.25
2018-09-12T15:35:29.938Z,6.18
2018-09-12T15:37:58.839Z,8.63
2018-09-12T15:40:27.167Z,6.85
2018-09-12T15:42:55.347Z,8.43
2018-09-12T15:45:23.808Z,9.10
2018-09-12T15:47:52.139Z,7.37
2018-09-12T15:50:20.465Z,9.48
2018-09-12T15:52:48.360Z,6.62
2018-09-12T15:55:17.121Z,5.60
2018-09-12T15:57:45.496Z,6.28
2018-09-12T16:00:13.771Z,9.82
2018-09-12T16:02:42.160Z,6.93
2018-09-12T16:05:09.861Z,9.73
2018-09-12T16:07:38.820Z,8.57
2018-09-12T16:10:06.801Z,5.97
2018-09-12T16:12:34.895Z,6.28
2018-09-12T16:15:03.807Z,5.50
2018-09-12T16:17:32.123Z,5.62
2018-09-12T16:19:59.873Z,7.65
2018-09-12T16:22:28.770Z,5.55
2018-09-12T16:24:57.006Z,7.75
2018-09-12T16:27:25.338Z,26.65
2018-09-12T16:29:54.268Z,23.73
2018-09-12T16:32:22.589Z,22.80
2018-09-12T16:34:50.921Z,20.75
2018-09-12T16:37:19.133Z,14.60
2018-09-12T16:39:48.044Z,12.10
2018-09-12T16:42:16.370Z,11.12
2018-09-12T16:44:44.693Z,6.18
2018-09-12T16:47:13.019Z,10.40
2018-09-12T16:49:41.345Z,7.90
2018-09-12T16:52:10.201Z,9.68
2018-09-12T16:54:38.520Z,9.50
2018-09-12T16:57:06.278Z,7.05
2018-09-12T16:59:35.235Z,5.65
2018-09-12T17:02:03.688Z,7.30
2018-09-12T17:04:32.102Z,9.45
2018-09-12T17:07:00.439Z,15.80
2018-09-12T17:09:28.868Z,13.07
2018-09-12T17:11:56.728Z,11.75
2018-09-12T17:14:24.952Z,13.18
2018-09-12T17:16:53.852Z,14.05
2018-09-12T17:19:22.486Z,11.55
2018-09-12T17:21:50.816Z,9.93
2018-09-12T17:24:19.154Z,11.20
2018-09-12T17:26:48.336Z,10.90
2018-09-12T17:29:16.807Z,10.98
2018-09-12T17:31:44.493Z,12.25
2018-09-12T17:34:12.825Z,10.20
2018-09-12T17:36:41.237Z,11.75
2018-09-12T17:39:10.243Z,16.62
2018-09-12T17:41:42.111Z,25.17
2018-09-12T17:44:09.864Z,38.45
2018-09-12T17:46:38.794Z,45.10
2018-09-12T17:49:07.131Z,44.03
2018-09-12T17:51:35.495Z,42.15
2018-09-12T17:54:10.072Z,47.35
2018-09-12T17:56:37.868Z,44.80
2018-09-12T17:59:06.202Z,45.95
2018-09-12T18:01:35.116Z,41.75
2018-09-12T18:04:03.583Z,40.92
2018-09-12T18:06:31.918Z,38.22
2018-09-12T18:09:00.371Z,33.08
2018-09-12T18:11:28.722Z,30.27
2018-09-12T18:13:57.243Z,30.83
2018-09-12T18:16:25.616Z,27.77
2018-09-12T18:18:53.970Z,31.85
2018-09-12T18:21:24.510Z,34.78
2018-09-12T18:23:51.592Z,31.58
2018-09-12T18:26:20.648Z,33.55
2018-09-12T18:28:48.406Z,29.02
2018-09-12T18:31:16.788Z,28.52
2018-09-12T18:33:45.707Z,24.12
2018-09-12T18:36:14.127Z,32.55
2018-09-12T18:38:42.374Z,24.80
2018-09-12T18:41:10.796Z,29.25
2018-09-12T18:43:39.148Z,31.52
2018-09-12T18:46:07.492Z,27.30
2018-09-12T18:48:35.825Z,30.02
2018-09-12T18:51:03.581Z,25.35
2018-09-12T18:53:32.511Z,23.73
2018-09-12T18:56:01.112Z,26.35
2018-09-12T18:58:29.472Z,23.33
2018-09-12T19:00:57.817Z,22.98
2018-09-12T19:03:26.874Z,22.13
2018-09-12T19:05:55.224Z,24.37
2018-09-12T19:08:23.549Z,19.62
2018-09-12T19:10:52.581Z,18.37
2018-09-12T19:13:21.011Z,20.52
2018-09-12T19:15:49.337Z,18.62
2018-09-12T19:18:18.132Z,11.00
2018-09-12T19:20:46.461Z,7.40
2018-09-12T19:23:15.745Z,8.45
2018-09-12T19:25:44.147Z,11.00
2018-09-12T19:28:12.481Z,12.10
2018-09-12T19:30:40.817Z,11.57
2018-09-12T19:33:09.152Z,12.02
2018-09-12T19:35:37.483Z,12.30
2018-09-12T19:38:05.812Z,12.35
2018-09-12T19:40:34.147Z,14.77
2018-09-12T19:43:02.490Z,10.20
2018-09-12T19:45:30.818Z,12.90
2018-09-12T19:47:58.577Z,10.70
2018-09-12T19:50:28.634Z,11.25
2018-09-12T19:52:56.994Z,11.02
2018-09-12T19:55:25.369Z,11.30
2018-09-12T19:57:53.701Z,9.70
2018-09-12T20:00:21.473Z,8.32
2018-09-12T20:02:50.397Z,8.55
2018-09-12T20:05:19.370Z,9.95
2018-09-12T20:07:47.701Z,9.48
2018-09-12T20:10:20.762Z,8.75
2018-09-12T20:12:49.129Z,11.68
2018-09-12T20:15:17.462Z,10.60
2018-09-12T20:17:46.420Z,10.15
2018-09-12T20:20:14.784Z,22.70
2018-09-12T20:22:43.134Z,25.77
2018-09-12T20:25:11.045Z,42.50
2018-09-12T20:27:39.972Z,35.75
2018-09-12T20:30:08.439Z,45.95
2018-09-12T20:32:36.749Z,52.30
2018-09-12T20:35:05.020Z,53.72
2018-09-12T20:37:33.357Z,44.97
2018-09-12T20:40:01.700Z,44.05
2018-09-12T20:42:29.556Z,39.25
2018-09-12T20:44:57.790Z,33.10
2018-09-12T20:47:26.129Z,29.10
2018-09-12T20:49:55.047Z,27.10
2018-09-12T20:52:23.383Z,31.05
2018-09-12T20:54:51.157Z,24.37
2018-09-12T20:57:21.433Z,28.27
2018-09-12T20:59:49.769Z,25.33
2018-09-12T21:02:18.691Z,26.60
2018-09-12T21:04:46.474Z,27.48
2018-09-12T21:07:15.404Z,33.03
2018-09-12T21:09:43.731Z,30.30
2018-09-12T21:12:11.610Z,31.20
2018-09-12T21:14:39.945Z,25.75
2018-09-12T21:17:08.870Z,24.52
2018-09-12T21:19:37.214Z,26.33
2018-09-12T21:22:05.555Z,24.25
2018-09-12T21:24:33.899Z,26.95
2018-09-12T21:27:01.654Z,23.70
2018-09-12T21:29:29.985Z,20.80
2018-09-12T21:31:58.325Z,20.37
2018-09-12T21:34:26.654Z,18.33
2018-09-12T21:36:55.568Z,27.58
2018-09-12T21:39:23.328Z,23.87
2018-09-12T21:41:51.669Z,22.00
2018-09-12T21:44:20.592Z,20.55
2018-09-12T21:46:48.933Z,22.13
2018-09-12T21:49:16.801Z,22.35
2018-09-12T21:51:45.719Z,19.37
2018-09-12T21:54:14.146Z,15.85
2018-09-12T21:56:42.489Z,18.92
2018-09-12T21:59:10.236Z,16.20
2018-09-12T22:01:39.470Z,17.90
2018-09-12T22:04:07.875Z,15.20
2018-09-12T22:06:35.624Z,14.75
2018-09-12T22:09:03.962Z,15.45
2018-09-12T22:11:32.300Z,14.38
2018-09-12T22:14:00.632Z,14.77
2018-09-12T22:16:28.970Z,13.43
2018-09-12T22:18:57.875Z,11.40
2018-09-12T22:21:26.208Z,10.98
2018-09-12T22:23:54.438Z,10.10
2018-09-12T22:26:22.764Z,10.30
2018-09-12T22:28:51.662Z,9.90
2018-09-12T22:31:19.409Z,11.75
2018-09-12T22:33:48.313Z,9.68
2018-09-12T22:36:16.060Z,11.65
2018-09-12T22:38:44.965Z,11.27
2018-09-12T22:41:13.284Z,8.35
2018-09-12T22:43:41.641Z,9.75
2018-09-12T22:46:09.961Z,8.43
2018-09-12T22:48:38.284Z,8.90
2018-09-12T22:51:06.115Z,12.43
2018-09-12T22:53:35.023Z,9.70
2018-09-12T22:56:03.334Z,9.32
2018-09-12T22:58:31.072Z,8.75
2018-09-12T23:00:59.405Z,10.68
2018-09-12T23:03:28.695Z,8.30
2018-09-12T23:05:56.432Z,9.05
2018-09-12T23:08:25.325Z,8.73
2018-09-12T23:10:53.074Z,7.32
2018-09-12T23:13:22.006Z,7.57
2018-09-12T23:15:50.322Z,9.95
2018-09-12T23:18:18.644Z,7.30
2018-09-12T23:20:47.463Z,8.35
2018-09-12T23:23:15.785Z,8.02
2018-09-12T23:25:44.108Z,9.48
2018-09-12T23:28:12.425Z,7.10
2018-09-12T23:30:40.745Z,6.50
2018-09-12T23:33:08.482Z,9.60
2018-09-12T23:35:37.382Z,7.68
2018-09-12T23:38:05.701Z,8.38
2018-09-12T23:40:34.021Z,8.20
2018-09-12T23:43:01.908Z,6.93
2018-09-12T23:45:30.670Z,6.68
2018-09-12T23:47:58.984Z,7.07
2018-09-12T23:50:27.307Z,7.53
2018-09-12T23:52:55.621Z,7.47
2018-09-12T23:55:23.949Z,6.20
2018-09-12T23:57:52.268Z,7.43
